sensor_id;sensor_type;location;lat;lon;timestamp;P1;durP1;ratioP1;P2;durP2;ratioP2
59607;SDS011;45426;44.726;10.390;2022-12-29T01:53:10;93.22;;;33.17;;
59607;SDS011;45426;44.726;10.390;2022-12-29T01:59:18;98.25;;;37.47;;
59607;SDS011;45426;44.726;10.390;2022-12-29T02:02:32;119.32;;;55.90;;
59607;SDS011;45426;44.726;10.390;2022-12-29T02:05:08;94.85;;;35.75;;
59607;SDS011;45426;44.726;10.390;2022-12-29T02:08:06;94.18;;;34.35;;
59607;SDS011;45426;44.726;10.390;2022-12-29T02:10:36;86.90;;;32.63;;
59607;SDS011;45426;44.726;10.390;2022-12-29T02:13:24;95.32;;;33.83;;
59607;SDS011;45426;44.726;10.390;2022-12-29T02:16:20;99.43;;;32.40;;
59607;SDS011;45426;44.726;10.390;2022-12-29T02:32:05;95.65;;;33.13;;
59607;SDS011;45426;44.726;10.390;2022-12-29T03:01:13;90.13;;;32.63;;
59607;SDS011;45426;44.726;10.390;2022-12-29T03:04:35;93.28;;;32.65;;
59607;SDS011;45426;44.726;10.390;2022-12-29T03:07:30;92.78;;;33.47;;
59607;SDS011;45426;44.726;10.390;2022-12-29T03:19:42;93.45;;;33.67;;
59607;SDS011;45426;44.726;10.390;2022-12-29T03:23:03;76.18;;;30.77;;
59607;SDS011;45426;44.726;10.390;2022-12-29T03:29:02;87.75;;;32.75;;
59607;SDS011;45426;44.726;10.390;2022-12-29T03:31:46;82.72;;;31.80;;
59607;SDS011;45426;44.726;10.390;2022-12-29T03:34:25;80.60;;;31.05;;
59607;SDS011;45426;44.726;10.390;2022-12-29T03:36:58;84.50;;;33.13;;
59607;SDS011;45426;44.726;10.390;2022-12-29T03:39:55;87.05;;;32.08;;
59607;SDS011;45426;44.726;10.390;2022-12-29T03:42:27;83.85;;;31.48;;
59607;SDS011;45426;44.726;10.390;2022-12-29T03:45:05;81.30;;;31.15;;
59607;SDS011;45426;44.726;10.390;2022-12-29T03:47:34;83.22;;;31.73;;
59607;SDS011;45426;44.726;10.390;2022-12-29T03:50:14;82.18;;;33.08;;
59607;SDS011;45426;44.726;10.390;2022-12-29T03:53:16;84.40;;;32.25;;
59607;SDS011;45426;44.726;10.390;2022-12-29T03:56:45;87.07;;;33.17;;
59607;SDS011;45426;44.726;10.390;2022-12-29T03:59:40;83.72;;;31.70;;
59607;SDS011;45426;44.726;10.390;2022-12-29T04:02:18;90.13;;;33.20;;
59607;SDS011;45426;44.726;10.390;2022-12-29T04:04:57;92.20;;;34.08;;
59607;SDS011;45426;44.726;10.390;2022-12-29T04:07:33;89.35;;;32.28;;
59607;SDS011;45426;44.726;10.390;2022-12-29T04:12:47;84.10;;;32.63;;
59607;SDS011;45426;44.726;10.390;2022-12-29T04:15:34;93.78;;;32.90;;
59607;SDS011;45426;44.726;10.390;2022-12-29T04:18:10;90.25;;;34.00;;
59607;SDS011;45426;44.726;10.390;2022-12-29T04:20:54;86.43;;;32.92;;
59607;SDS011;45426;44.726;10.390;2022-12-29T04:23:31;89.05;;;33.40;;
59607;SDS011;45426;44.726;10.390;2022-12-29T04:26:06;85.03;;;34.08;;
59607;SDS011;45426;44.726;10.390;2022-12-29T04:28:39;96.75;;;35.53;;
59607;SDS011;45426;44.726;10.390;2022-12-29T04:31:08;103.43;;;35.17;;
59607;SDS011;45426;44.726;10.390;2022-12-29T04:33:44;95.25;;;35.88;;
59607;SDS011;45426;44.726;10.390;2022-12-29T04:36:15;98.20;;;34.83;;
59607;SDS011;45426;44.726;10.390;2022-12-29T04:42:02;97.30;;;36.33;;
59607;SDS011;45426;44.726;10.390;2022-12-29T04:47:45;90.25;;;33.45;;
59607;SDS011;45426;44.726;10.390;2022-12-29T04:50:47;102.93;;;37.03;;
59607;SDS011;45426;44.726;10.390;2022-12-29T04:53:40;110.30;;;36.63;;
59607;SDS011;45426;44.726;10.390;2022-12-29T04:56:20;102.68;;;36.13;;
59607;SDS011;45426;44.726;10.390;2022-12-29T04:58:54;100.57;;;35.33;;
59607;SDS011;45426;44.726;10.390;2022-12-29T05:01:29;103.85;;;35.67;;
59607;SDS011;45426;44.726;10.390;2022-12-29T05:04:08;110.43;;;37.22;;
59607;SDS011;45426;44.726;10.390;2022-12-29T05:06:44;105.65;;;34.65;;
59607;SDS011;45426;44.726;10.390;2022-12-29T05:09:23;101.38;;;36.72;;
59607;SDS011;45426;44.726;10.390;2022-12-29T05:16:01;106.35;;;36.20;;
59607;SDS011;45426;44.726;10.390;2022-12-29T05:19:09;110.05;;;36.63;;
59607;SDS011;45426;44.726;10.390;2022-12-29T05:21:47;104.18;;;36.33;;
59607;SDS011;45426;44.726;10.390;2022-12-29T05:31:19;108.65;;;37.13;;
59607;SDS011;45426;44.726;10.390;2022-12-29T05:33:59;102.20;;;35.08;;
59607;SDS011;45426;44.726;10.390;2022-12-29T05:36:28;103.70;;;35.42;;
59607;SDS011;45426;44.726;10.390;2022-12-29T05:39:00;102.60;;;36.22;;
59607;SDS011;45426;44.726;10.390;2022-12-29T05:41:38;101.93;;;35.15;;
59607;SDS011;45426;44.726;10.390;2022-12-29T05:44:13;115.97;;;36.58;;
59607;SDS011;45426;44.726;10.390;2022-12-29T05:46:47;104.38;;;35.38;;
59607;SDS011;45426;44.726;10.390;2022-12-29T05:49:44;107.88;;;34.25;;
59607;SDS011;45426;44.726;10.390;2022-12-29T05:52:15;113.85;;;36.88;;
59607;SDS011;45426;44.726;10.390;2022-12-29T05:54:50;106.00;;;36.00;;
59607;SDS011;45426;44.726;10.390;2022-12-29T05:57:16;115.05;;;37.08;;
59607;SDS011;45426;44.726;10.390;2022-12-29T05:59:44;112.20;;;35.08;;
59607;SDS011;45426;44.726;10.390;2022-12-29T06:02:15;114.50;;;35.78;;
59607;SDS011;45426;44.726;10.390;2022-12-29T06:04:41;113.65;;;36.60;;
59607;SDS011;45426;44.726;10.390;2022-12-29T06:07:07;107.65;;;34.97;;
59607;SDS011;45426;44.726;10.390;2022-12-29T06:09:32;116.43;;;35.40;;
59607;SDS011;45426;44.726;10.390;2022-12-29T06:12:00;109.78;;;35.42;;
59607;SDS011;45426;44.726;10.390;2022-12-29T06:14:35;105.88;;;34.38;;
59607;SDS011;45426;44.726;10.390;2022-12-29T06:17:08;111.90;;;34.38;;
59607;SDS011;45426;44.726;10.390;2022-12-29T06:23:45;110.40;;;35.50;;
59607;SDS011;45426;44.726;10.390;2022-12-29T06:26:47;108.65;;;32.97;;
59607;SDS011;45426;44.726;10.390;2022-12-29T06:29:15;116.80;;;36.83;;
59607;SDS011;45426;44.726;10.390;2022-12-29T06:31:48;113.68;;;34.88;;
59607;SDS011;45426;44.726;10.390;2022-12-29T06:34:18;114.88;;;34.63;;
59607;SDS011;45426;44.726;10.390;2022-12-29T06:36:49;119.50;;;36.03;;
59607;SDS011;45426;44.726;10.390;2022-12-29T06:39:22;116.70;;;35.45;;
59607;SDS011;45426;44.726;10.390;2022-12-29T06:41:53;119.20;;;36.00;;
59607;SDS011;45426;44.726;10.390;2022-12-29T06:44:40;111.00;;;35.90;;
59607;SDS011;45426;44.726;10.390;2022-12-29T06:47:19;113.30;;;34.75;;
59607;SDS011;45426;44.726;10.390;2022-12-29T06:49:44;113.20;;;36.38;;
59607;SDS011;45426;44.726;10.390;2022-12-29T06:52:14;115.50;;;36.05;;
59607;SDS011;45426;44.726;10.390;2022-12-29T06:54:39;110.88;;;36.78;;
59607;SDS011;45426;44.726;10.390;2022-12-29T06:57:05;112.55;;;33.65;;
59607;SDS011;45426;44.726;10.390;2022-12-29T06:59:30;110.25;;;34.78;;
59607;SDS011;45426;44.726;10.390;2022-12-29T07:01:59;108.03;;;34.47;;
59607;SDS011;45426;44.726;10.390;2022-12-29T07:04:32;115.88;;;34.72;;
59607;SDS011;45426;44.726;10.390;2022-12-29T07:25:29;106.95;;;34.17;;
59607;SDS011;45426;44.726;10.390;2022-12-29T07:47:13;108.55;;;33.85;;
59607;SDS011;45426;44.726;10.390;2022-12-29T07:50:20;106.95;;;33.90;;
59607;SDS011;45426;44.726;10.390;2022-12-29T08:25:11;102.70;;;32.40;;
59607;SDS011;45426;44.726;10.390;2022-12-29T13:43:31;68.43;;;22.02;;
59607;SDS011;45426;44.726;10.390;2022-12-29T13:46:27;76.57;;;28.02;;
59607;SDS011;45426;44.726;10.390;2022-12-29T13:49:19;70.40;;;25.13;;
59607;SDS011;45426;44.726;10.390;2022-12-29T13:51:48;77.50;;;26.00;;
59607;SDS011;45426;44.726;10.390;2022-12-29T13:54:35;76.65;;;25.88;;
59607;SDS011;45426;44.726;10.390;2022-12-29T13:57:14;86.72;;;28.92;;
59607;SDS011;45426;44.726;10.390;2022-12-29T14:00:01;90.32;;;30.08;;
59607;SDS011;45426;44.726;10.390;2022-12-29T14:09:05;92.45;;;28.73;;
59607;SDS011;45426;44.726;10.390;2022-12-29T14:11:42;89.82;;;28.60;;
59607;SDS011;45426;44.726;10.390;2022-12-29T14:14:21;86.28;;;26.98;;
59607;SDS011;45426;44.726;10.390;2022-12-29T14:16:49;84.55;;;26.55;;
59607;SDS011;45426;44.726;10.390;2022-12-29T14:19:17;84.28;;;27.30;;
59607;SDS011;45426;44.726;10.390;2022-12-29T14:21:54;89.20;;;32.58;;
59607;SDS011;45426;44.726;10.390;2022-12-29T14:24:40;90.57;;;29.60;;
59607;SDS011;45426;44.726;10.390;2022-12-29T14:29:48;86.68;;;27.80;;
59607;SDS011;45426;44.726;10.390;2022-12-29T14:38:06;75.50;;;25.00;;
59607;SDS011;45426;44.726;10.390;2022-12-29T14:40:42;73.25;;;23.55;;
59607;SDS011;45426;44.726;10.390;2022-12-29T14:43:12;77.45;;;24.40;;
59607;SDS011;45426;44.726;10.390;2022-12-29T14:45:43;92.10;;;29.85;;
59607;SDS011;45426;44.726;10.390;2022-12-29T14:48:21;85.90;;;27.33;;
59607;SDS011;45426;44.726;10.390;2022-12-29T14:50:58;84.53;;;28.15;;
59607;SDS011;45426;44.726;10.390;2022-12-29T14:53:41;91.10;;;31.48;;
59607;SDS011;45426;44.726;10.390;2022-12-29T14:56:12;85.80;;;29.45;;
59607;SDS011;45426;44.726;10.390;2022-12-29T15:01:19;110.15;;;34.92;;
59607;SDS011;45426;44.726;10.390;2022-12-29T15:06:51;108.03;;;33.78;;
59607;SDS011;45426;44.726;10.390;2022-12-29T15:11:57;107.57;;;36.10;;
59607;SDS011;45426;44.726;10.390;2022-12-29T15:17:33;122.75;;;36.10;;
59607;SDS011;45426;44.726;10.390;2022-12-29T15:20:00;107.15;;;33.33;;
59607;SDS011;45426;44.726;10.390;2022-12-29T15:22:45;112.57;;;34.53;;
59607;SDS011;45426;44.726;10.390;2022-12-29T15:25:21;103.88;;;33.85;;
59607;SDS011;45426;44.726;10.390;2022-12-29T15:27:50;100.28;;;32.00;;
59607;SDS011;45426;44.726;10.390;2022-12-29T15:30:18;103.93;;;33.83;;
59607;SDS011;45426;44.726;10.390;2022-12-29T15:32:44;107.40;;;33.80;;
59607;SDS011;45426;44.726;10.390;2022-12-29T15:35:24;102.68;;;30.85;;
59607;SDS011;45426;44.726;10.390;2022-12-29T15:37:52;103.22;;;33.00;;
59607;SDS011;45426;44.726;10.390;2022-12-29T15:40:22;107.22;;;32.60;;
59607;SDS011;45426;44.726;10.390;2022-12-29T15:42:58;104.63;;;32.38;;
59607;SDS011;45426;44.726;10.390;2022-12-29T15:45:40;113.50;;;34.22;;
59607;SDS011;45426;44.726;10.390;2022-12-29T15:48:16;103.75;;;32.55;;
59607;SDS011;45426;44.726;10.390;2022-12-29T15:50:45;114.43;;;33.50;;
59607;SDS011;45426;44.726;10.390;2022-12-29T15:53:12;109.38;;;33.65;;
59607;SDS011;45426;44.726;10.390;2022-12-29T15:55:43;117.50;;;36.67;;
59607;SDS011;45426;44.726;10.390;2022-12-29T15:58:22;107.53;;;34.65;;
59607;SDS011;45426;44.726;10.390;2022-12-29T16:00:54;110.03;;;33.97;;
59607;SDS011;45426;44.726;10.390;2022-12-29T16:03:24;94.93;;;31.50;;
59607;SDS011;45426;44.726;10.390;2022-12-29T16:05:56;103.32;;;32.88;;
59607;SDS011;45426;44.726;10.390;2022-12-29T16:11:16;99.47;;;31.25;;
59607;SDS011;45426;44.726;10.390;2022-12-29T16:13:55;98.25;;;31.42;;
59607;SDS011;45426;44.726;10.390;2022-12-29T16:16:28;101.57;;;31.90;;
59607;SDS011;45426;44.726;10.390;2022-12-29T16:18:57;106.53;;;33.92;;
59607;SDS011;45426;44.726;10.390;2022-12-29T16:21:27;102.35;;;33.28;;
59607;SDS011;45426;44.726;10.390;2022-12-29T16:23:59;110.20;;;32.78;;
59607;SDS011;45426;44.726;10.390;2022-12-29T16:26:29;121.35;;;36.60;;
59607;SDS011;45426;44.726;10.390;2022-12-29T16:29:01;99.13;;;30.75;;
59607;SDS011;45426;44.726;10.390;2022-12-29T16:33:56;101.25;;;32.15;;
59607;SDS011;45426;44.726;10.390;2022-12-29T16:36:26;112.22;;;34.78;;
59607;SDS011;45426;44.726;10.390;2022-12-29T16:45:15;96.70;;;29.85;;
59607;SDS011;45426;44.726;10.390;2022-12-29T16:48:10;103.78;;;31.63;;
59607;SDS011;45426;44.726;10.390;2022-12-29T16:50:42;104.22;;;31.15;;
59607;SDS011;45426;44.726;10.390;2022-12-29T16:55:49;105.70;;;32.65;;
59607;SDS011;45426;44.726;10.390;2022-12-29T16:58:20;106.40;;;31.60;;
59607;SDS011;45426;44.726;10.390;2022-12-29T17:00:51;108.88;;;34.17;;
59607;SDS011;45426;44.726;10.390;2022-12-29T17:03:33;111.65;;;33.97;;
59607;SDS011;45426;44.726;10.390;2022-12-29T17:06:03;116.32;;;34.97;;
59607;SDS011;45426;44.726;10.390;2022-12-29T17:08:38;108.20;;;34.67;;
59607;SDS011;45426;44.726;10.390;2022-12-29T17:16:44;116.15;;;37.58;;
59607;SDS011;45426;44.726;10.390;2022-12-29T17:22:16;121.53;;;36.25;;
59607;SDS011;45426;44.726;10.390;2022-12-29T17:24:46;115.00;;;33.67;;
59607;SDS011;45426;44.726;10.390;2022-12-29T17:27:17;121.07;;;36.13;;
59607;SDS011;45426;44.726;10.390;2022-12-29T17:29:47;123.13;;;35.25;;
59607;SDS011;45426;44.726;10.390;2022-12-29T17:32:12;218.57;;;72.85;;
59607;SDS011;45426;44.726;10.390;2022-12-29T17:34:39;125.93;;;37.78;;
59607;SDS011;45426;44.726;10.390;2022-12-29T17:39:51;134.68;;;41.78;;
59607;SDS011;45426;44.726;10.390;2022-12-29T17:42:19;123.38;;;39.92;;
59607;SDS011;45426;44.726;10.390;2022-12-29T17:44:47;122.35;;;38.05;;
59607;SDS011;45426;44.726;10.390;2022-12-29T17:47:12;129.93;;;39.20;;
59607;SDS011;45426;44.726;10.390;2022-12-29T17:49:41;123.38;;;37.05;;
59607;SDS011;45426;44.726;10.390;2022-12-29T17:52:13;164.68;;;56.40;;
59607;SDS011;45426;44.726;10.390;2022-12-29T17:54:44;166.52;;;54.65;;
59607;SDS011;45426;44.726;10.390;2022-12-29T17:57:22;149.02;;;50.03;;
59607;SDS011;45426;44.726;10.390;2022-12-29T17:59:49;121.57;;;38.67;;
59607;SDS011;45426;44.726;10.390;2022-12-29T18:04:46;266.33;;;99.82;;
59607;SDS011;45426;44.726;10.390;2022-12-29T18:07:12;121.38;;;36.88;;
59607;SDS011;45426;44.726;10.390;2022-12-29T18:09:37;110.40;;;35.10;;
59607;SDS011;45426;44.726;10.390;2022-12-29T18:12:03;172.38;;;60.30;;
59607;SDS011;45426;44.726;10.390;2022-12-29T18:14:28;119.55;;;38.35;;
59607;SDS011;45426;44.726;10.390;2022-12-29T18:17:19;132.32;;;44.00;;
59607;SDS011;45426;44.726;10.390;2022-12-29T18:19:45;110.38;;;34.50;;
59607;SDS011;45426;44.726;10.390;2022-12-29T18:22:10;94.93;;;31.15;;
59607;SDS011;45426;44.726;10.390;2022-12-29T18:24:36;101.22;;;33.58;;
59607;SDS011;45426;44.726;10.390;2022-12-29T18:27:08;103.70;;;34.88;;
59607;SDS011;45426;44.726;10.390;2022-12-29T18:29:37;91.72;;;31.15;;
59607;SDS011;45426;44.726;10.390;2022-12-29T18:32:04;98.63;;;31.73;;
59607;SDS011;45426;44.726;10.390;2022-12-29T18:34:32;99.25;;;32.55;;
59607;SDS011;45426;44.726;10.390;2022-12-29T18:37:00;98.55;;;32.60;;
59607;SDS011;45426;44.726;10.390;2022-12-29T18:39:26;97.28;;;31.42;;
59607;SDS011;45426;44.726;10.390;2022-12-29T18:41:52;94.80;;;31.40;;
59607;SDS011;45426;44.726;10.390;2022-12-29T18:44:18;97.72;;;30.90;;
59607;SDS011;45426;44.726;10.390;2022-12-29T18:46:44;93.13;;;29.90;;
59607;SDS011;45426;44.726;10.390;2022-12-29T18:49:09;95.45;;;32.63;;
59607;SDS011;45426;44.726;10.390;2022-12-29T18:51:35;83.07;;;29.88;;
59607;SDS011;45426;44.726;10.390;2022-12-29T18:54:00;87.18;;;29.98;;
59607;SDS011;45426;44.726;10.390;2022-12-29T18:56:27;86.45;;;29.75;;
59607;SDS011;45426;44.726;10.390;2022-12-29T18:58:52;87.20;;;30.80;;
59607;SDS011;45426;44.726;10.390;2022-12-29T19:01:19;80.75;;;28.48;;
59607;SDS011;45426;44.726;10.390;2022-12-29T19:03:49;83.57;;;27.67;;
59607;SDS011;45426;44.726;10.390;2022-12-29T19:06:14;77.22;;;27.63;;
59607;SDS011;45426;44.726;10.390;2022-12-29T19:08:43;91.32;;;29.67;;
59607;SDS011;45426;44.726;10.390;2022-12-29T19:11:08;83.80;;;29.00;;
59607;SDS011;45426;44.726;10.390;2022-12-29T19:13:34;79.68;;;27.77;;
59607;SDS011;45426;44.726;10.390;2022-12-29T19:16:01;81.85;;;27.77;;
59607;SDS011;45426;44.726;10.390;2022-12-29T19:18:27;72.28;;;25.17;;
59607;SDS011;45426;44.726;10.390;2022-12-29T19:20:59;79.47;;;27.75;;
59607;SDS011;45426;44.726;10.390;2022-12-29T19:23:25;77.20;;;27.55;;
59607;SDS011;45426;44.726;10.390;2022-12-29T19:25:52;74.80;;;27.63;;
59607;SDS011;45426;44.726;10.390;2022-12-29T19:28:20;70.55;;;27.02;;
59607;SDS011;45426;44.726;10.390;2022-12-29T19:30:50;74.88;;;25.75;;
59607;SDS011;45426;44.726;10.390;2022-12-29T19:33:17;79.25;;;27.00;;
59607;SDS011;45426;44.726;10.390;2022-12-29T19:35:43;74.53;;;27.63;;
59607;SDS011;45426;44.726;10.390;2022-12-29T19:38:10;74.32;;;28.45;;
59607;SDS011;45426;44.726;10.390;2022-12-29T19:40:40;69.88;;;27.15;;
59607;SDS011;45426;44.726;10.390;2022-12-29T19:43:08;74.35;;;27.55;;
59607;SDS011;45426;44.726;10.390;2022-12-29T19:45:38;71.38;;;27.17;;
59607;SDS011;45426;44.726;10.390;2022-12-29T19:48:05;69.88;;;26.13;;
59607;SDS011;45426;44.726;10.390;2022-12-29T19:50:31;71.57;;;27.17;;
59607;SDS011;45426;44.726;10.390;2022-12-29T19:52:57;69.13;;;26.48;;
59607;SDS011;45426;44.726;10.390;2022-12-29T19:55:23;80.25;;;30.30;;
59607;SDS011;45426;44.726;10.390;2022-12-29T19:57:53;71.22;;;28.05;;
59607;SDS011;45426;44.726;10.390;2022-12-29T20:00:19;73.35;;;27.88;;
59607;SDS011;45426;44.726;10.390;2022-12-29T20:02:44;75.68;;;27.70;;
59607;SDS011;45426;44.726;10.390;2022-12-29T20:05:10;66.80;;;25.85;;
59607;SDS011;45426;44.726;10.390;2022-12-29T20:07:35;65.82;;;26.20;;
59607;SDS011;45426;44.726;10.390;2022-12-29T20:10:02;68.10;;;29.27;;
59607;SDS011;45426;44.726;10.390;2022-12-29T20:12:29;69.90;;;27.02;;
59607;SDS011;45426;44.726;10.390;2022-12-29T20:14:57;70.22;;;27.42;;
59607;SDS011;45426;44.726;10.390;2022-12-29T20:17:22;64.35;;;25.17;;
59607;SDS011;45426;44.726;10.390;2022-12-29T20:19:48;69.43;;;27.05;;
59607;SDS011;45426;44.726;10.390;2022-12-29T20:22:13;73.45;;;29.17;;
59607;SDS011;45426;44.726;10.390;2022-12-29T20:24:40;70.70;;;27.27;;
59607;SDS011;45426;44.726;10.390;2022-12-29T20:27:06;69.47;;;26.38;;
59607;SDS011;45426;44.726;10.390;2022-12-29T20:29:34;71.32;;;27.50;;
59607;SDS011;45426;44.726;10.390;2022-12-29T20:32:13;75.80;;;29.20;;
59607;SDS011;45426;44.726;10.390;2022-12-29T20:34:41;85.40;;;30.17;;
59607;SDS011;45426;44.726;10.390;2022-12-29T20:37:08;124.55;;;43.78;;
59607;SDS011;45426;44.726;10.390;2022-12-29T20:39:34;88.15;;;33.72;;
59607;SDS011;45426;44.726;10.390;2022-12-29T20:42:00;77.88;;;30.33;;
59607;SDS011;45426;44.726;10.390;2022-12-29T20:44:29;102.47;;;37.35;;
59607;SDS011;45426;44.726;10.390;2022-12-29T20:47:01;74.18;;;29.10;;
59607;SDS011;45426;44.726;10.390;2022-12-29T20:49:34;75.82;;;29.40;;
59607;SDS011;45426;44.726;10.390;2022-12-29T20:52:17;75.22;;;28.23;;
59607;SDS011;45426;44.726;10.390;2022-12-29T20:54:43;73.35;;;28.17;;
59607;SDS011;45426;44.726;10.390;2022-12-29T20:57:12;70.28;;;27.40;;
59607;SDS011;45426;44.726;10.390;2022-12-29T20:59:37;72.88;;;28.45;;
59607;SDS011;45426;44.726;10.390;2022-12-29T21:02:03;75.35;;;28.15;;
59607;SDS011;45426;44.726;10.390;2022-12-29T21:04:28;75.13;;;29.65;;
59607;SDS011;45426;44.726;10.390;2022-12-29T21:06:54;78.25;;;28.27;;
59607;SDS011;45426;44.726;10.390;2022-12-29T21:09:19;88.85;;;33.97;;
59607;SDS011;45426;44.726;10.390;2022-12-29T21:11:46;80.32;;;28.08;;
59607;SDS011;45426;44.726;10.390;2022-12-29T21:14:11;77.45;;;28.63;;
59607;SDS011;45426;44.726;10.390;2022-12-29T21:16:37;86.40;;;30.90;;
59607;SDS011;45426;44.726;10.390;2022-12-29T21:19:03;80.65;;;30.60;;
59607;SDS011;45426;44.726;10.390;2022-12-29T21:21:29;82.47;;;29.85;;
59607;SDS011;45426;44.726;10.390;2022-12-29T21:23:55;75.65;;;28.52;;
59607;SDS011;45426;44.726;10.390;2022-12-29T21:26:29;81.50;;;27.67;;
59607;SDS011;45426;44.726;10.390;2022-12-29T21:28:55;79.70;;;28.52;;
59607;SDS011;45426;44.726;10.390;2022-12-29T21:31:27;79.97;;;30.08;;
59607;SDS011;45426;44.726;10.390;2022-12-29T21:33:55;78.82;;;29.25;;
59607;SDS011;45426;44.726;10.390;2022-12-29T21:36:25;80.65;;;29.65;;
59607;SDS011;45426;44.726;10.390;2022-12-29T21:38:52;85.75;;;29.38;;
59607;SDS011;45426;44.726;10.390;2022-12-29T21:44:16;88.45;;;29.75;;
59607;SDS011;45426;44.726;10.390;2022-12-29T21:47:16;76.60;;;27.13;;
59607;SDS011;45426;44.726;10.390;2022-12-29T21:49:41;79.15;;;28.52;;
59607;SDS011;45426;44.726;10.390;2022-12-29T21:52:07;94.15;;;29.70;;
59607;SDS011;45426;44.726;10.390;2022-12-29T21:54:32;77.05;;;28.33;;
59607;SDS011;45426;44.726;10.390;2022-12-29T21:57:24;85.45;;;28.95;;
59607;SDS011;45426;44.726;10.390;2022-12-29T22:00:11;84.75;;;30.13;;
59607;SDS011;45426;44.726;10.390;2022-12-29T22:02:55;79.70;;;28.85;;
59607;SDS011;45426;44.726;10.390;2022-12-29T22:05:41;90.72;;;29.63;;
59607;SDS011;45426;44.726;10.390;2022-12-29T22:08:26;85.75;;;29.33;;
59607;SDS011;45426;44.726;10.390;2022-12-29T22:11:10;83.80;;;30.00;;
59607;SDS011;45426;44.726;10.390;2022-12-29T22:13:54;82.50;;;28.00;;
59607;SDS011;45426;44.726;10.390;2022-12-29T22:16:20;90.43;;;29.33;;
59607;SDS011;45426;44.726;10.390;2022-12-29T22:18:48;90.82;;;29.35;;
59607;SDS011;45426;44.726;10.390;2022-12-29T22:21:14;88.38;;;29.33;;
59607;SDS011;45426;44.726;10.390;2022-12-29T22:23:39;95.25;;;30.38;;
59607;SDS011;45426;44.726;10.390;2022-12-29T22:26:06;83.43;;;30.70;;
59607;SDS011;45426;44.726;10.390;2022-12-29T22:28:39;92.20;;;29.35;;
59607;SDS011;45426;44.726;10.390;2022-12-29T22:31:17;83.57;;;29.38;;
59607;SDS011;45426;44.726;10.390;2022-12-29T22:33:45;93.82;;;30.52;;
59607;SDS011;45426;44.726;10.390;2022-12-29T22:36:10;86.82;;;28.95;;
59607;SDS011;45426;44.726;10.390;2022-12-29T22:38:36;92.20;;;30.10;;
59607;SDS011;45426;44.726;10.390;2022-12-29T22:41:01;91.28;;;28.90;;
59607;SDS011;45426;44.726;10.390;2022-12-29T22:43:27;88.93;;;29.17;;
59607;SDS011;45426;44.726;10.390;2022-12-29T22:45:54;84.90;;;28.70;;
59607;SDS011;45426;44.726;10.390;2022-12-29T22:48:19;87.75;;;28.88;;
59607;SDS011;45426;44.726;10.390;2022-12-29T22:50:45;90.68;;;30.60;;
59607;SDS011;45426;44.726;10.390;2022-12-29T22:53:10;92.88;;;30.60;;
59607;SDS011;45426;44.726;10.390;2022-12-29T22:55:35;87.45;;;29.38;;
59607;SDS011;45426;44.726;10.390;2022-12-29T22:58:01;86.05;;;29.92;;
59607;SDS011;45426;44.726;10.390;2022-12-29T23:00:27;88.43;;;30.33;;
59607;SDS011;45426;44.726;10.390;2022-12-29T23:02:52;90.28;;;28.83;;
59607;SDS011;45426;44.726;10.390;2022-12-29T23:05:18;91.07;;;28.52;;
59607;SDS011;45426;44.726;10.390;2022-12-29T23:07:43;85.88;;;29.17;;
59607;SDS011;45426;44.726;10.390;2022-12-29T23:10:08;83.50;;;28.90;;
59607;SDS011;45426;44.726;10.390;2022-12-29T23:12:34;81.47;;;28.27;;
59607;SDS011;45426;44.726;10.390;2022-12-29T23:14:59;75.72;;;28.25;;
59607;SDS011;45426;44.726;10.390;2022-12-29T23:17:25;83.45;;;29.65;;
59607;SDS011;45426;44.726;10.390;2022-12-29T23:19:50;76.45;;;28.58;;
59607;SDS011;45426;44.726;10.390;2022-12-29T23:22:16;78.97;;;28.98;;
59607;SDS011;45426;44.726;10.390;2022-12-29T23:24:41;77.65;;;28.90;;
59607;SDS011;45426;44.726;10.390;2022-12-29T23:27:07;75.57;;;27.90;;
59607;SDS011;45426;44.726;10.390;2022-12-29T23:29:32;78.53;;;28.38;;
59607;SDS011;45426;44.726;10.390;2022-12-29T23:31:57;81.97;;;29.98;;
59607;SDS011;45426;44.726;10.390;2022-12-29T23:34:23;81.00;;;28.33;;
59607;SDS011;45426;44.726;10.390;2022-12-29T23:36:48;82.93;;;28.50;;
59607;SDS011;45426;44.726;10.390;2022-12-29T23:39:18;74.00;;;28.45;;
59607;SDS011;45426;44.726;10.390;2022-12-29T23:41:47;75.45;;;28.40;;
59607;SDS011;45426;44.726;10.390;2022-12-29T23:44:13;75.55;;;27.15;;
59607;SDS011;45426;44.726;10.390;2022-12-29T23:46:38;71.82;;;26.77;;
59607;SDS011;45426;44.726;10.390;2022-12-29T23:49:05;79.55;;;27.90;;
59607;SDS011;45426;44.726;10.390;2022-12-29T23:51:31;74.95;;;27.38;;
59607;SDS011;45426;44.726;10.390;2022-12-29T23:53:56;74.68;;;27.17;;
59607;SDS011;45426;44.726;10.390;2022-12-29T23:56:22;76.18;;;27.23;;
59607;SDS011;45426;44.726;10.390;2022-12-29T23:58:48;76.15;;;26.25;;
